createdAt,value
2023-05-24T00:01:44.446Z,7.6
2023-05-24T00:07:21.969Z,7.5
2023-05-24T00:13:13.297Z,7.4
2023-05-24T00:18:50.269Z,7.3
2023-05-24T00:24:43.667Z,7.3
2023-05-24T00:30:35.808Z,7.3
2023-05-24T00:36:11.973Z,7.3
2023-05-24T00:42:04.119Z,7.3
2023-05-24T00:47:56.067Z,7.3
2023-05-24T00:53:49.188Z,7.2
2023-05-24T00:59:25.861Z,7.1
2023-05-24T01:05:19.122Z,7.1
2023-05-24T01:11:13.626Z,6.9
2023-05-24T01:17:05.425Z,6.9
2023-05-24T01:22:56.844Z,6.9
2023-05-24T01:28:47.580Z,6.8
2023-05-24T01:34:40.456Z,6.7
2023-05-24T01:40:16.946Z,6.7
2023-05-24T01:45:52.851Z,6.6
2023-05-24T01:51:44.932Z,6.5
2023-05-24T01:57:36.093Z,6.4
2023-05-24T02:03:28.907Z,6.4
2023-05-24T02:09:04.333Z,6.3
2023-05-24T02:14:55.839Z,6.3
2023-05-24T02:20:47.903Z,6.4
2023-05-24T02:26:23.979Z,6.3
2023-05-24T02:32:15.605Z,6.3
2023-05-24T02:38:06.984Z,6.3
2023-05-24T02:43:58.013Z,6.3
2023-05-24T02:49:50.228Z,6.3
2023-05-24T02:55:27.063Z,6.3
2023-05-24T03:01:18.443Z,6.3
2023-05-24T03:07:11.509Z,6.3
2023-05-24T03:13:04.951Z,6.3
2023-05-24T03:18:55.828Z,6.4
2023-05-24T03:24:48.514Z,6.5
2023-05-24T03:30:39.543Z,6.6
2023-05-24T03:36:30.705Z,6.8
2023-05-24T03:42:22.856Z,6.9
2023-05-24T03:48:28.939Z,7.1
2023-05-24T03:54:20.929Z,7.4
2023-05-24T04:00:15.137Z,7.7
2023-05-24T04:06:19.713Z,8.1
2023-05-24T04:11:40.165Z,8.4
2023-05-24T04:17:32.215Z,8.9
2023-05-24T04:23:25.253Z,9.5
2023-05-24T04:29:17.004Z,10.3
2023-05-24T04:35:09.548Z,11
2023-05-24T04:41:01.362Z,12.9
2023-05-24T04:46:53.027Z,14.8
2023-05-24T04:52:45.743Z,16.6
2023-05-24T04:58:38.150Z,18.4
2023-05-24T05:04:15.967Z,20.3
2023-05-24T05:10:08.383Z,22.2
2023-05-24T05:16:00.235Z,24.4
2023-05-24T05:21:53.115Z,26.6
2023-05-24T05:27:29.804Z,28.7
2023-05-24T05:33:06.230Z,30.9
2023-05-24T05:38:45.315Z,33.3
2023-05-24T05:44:37.418Z,35.9
2023-05-24T05:50:14.581Z,38.5
2023-05-24T05:56:04.993Z,41.2
2023-05-24T06:01:57.037Z,44.1
2023-05-24T06:07:50.894Z,47
2023-05-24T06:13:43.844Z,50.1
2023-05-24T06:19:47.374Z,53.1
2023-05-24T06:25:38.099Z,56
2023-05-24T06:31:29.616Z,58.6
2023-05-24T06:37:29.566Z,62.5
2023-05-24T06:43:20.207Z,54.2
2023-05-24T06:49:12.355Z,51.6
2023-05-24T06:55:04.712Z,56.4
2023-05-24T07:00:58.994Z,62.3
2023-05-24T07:06:51.118Z,51.4
2023-05-24T07:12:43.054Z,53.8
2023-05-24T07:18:19.759Z,63.6
2023-05-24T07:24:13.086Z,56.3
2023-05-24T07:35:40.488Z,60.9
2023-05-24T07:41:20.026Z,60.6
2023-05-24T07:47:12.609Z,55.6
2023-05-24T07:52:48.953Z,56.4
2023-05-24T07:58:40.374Z,57.6
2023-05-24T08:10:09.703Z,59.3
2023-05-24T08:15:45.743Z,60.6
2023-05-24T08:21:38.773Z,61.1
2023-05-24T08:27:33.882Z,61.5
2023-05-24T08:33:27.435Z,62
2023-05-24T08:39:18.589Z,62.4
2023-05-24T08:45:06.636Z,63
2023-05-24T08:51:01.794Z,63.9
2023-05-24T08:56:54.370Z,64.1
2023-05-24T09:02:30.990Z,64.1
2023-05-24T09:07:38.010Z,64.7
2023-05-24T09:13:56.256Z,66.2
2023-05-24T09:19:50.773Z,65.9
2023-05-24T09:25:31.633Z,66.9
2023-05-24T09:31:24.919Z,67.8
2023-05-24T09:37:01.355Z,67.9
2023-05-24T09:42:52.409Z,68.1
2023-05-24T09:48:15.250Z,67.7
2023-05-24T09:53:52.707Z,68
2023-05-24T09:59:44.958Z,66.5
2023-05-24T10:05:53.711Z,67.4
2023-05-24T10:11:45.767Z,67.3
2023-05-24T10:17:22.108Z,68.3
2023-05-24T10:46:46.857Z,69.7
2023-05-24T10:52:26.079Z,69.1
2023-05-24T10:57:41.567Z,69.4
2023-05-24T11:03:25.225Z,69.8
2023-05-24T11:08:30.771Z,69.9
2023-05-24T11:13:36.949Z,70.5
2023-05-24T11:19:01.040Z,69.4
2023-05-24T11:24:22.656Z,68.3
2023-05-24T11:29:58.596Z,68.4
2023-05-24T11:35:56.827Z,68.9
2023-05-24T11:41:27.459Z,69.6
2023-05-24T11:47:04.748Z,69.4
2023-05-24T11:52:52.327Z,69.1
2023-05-24T11:58:28.983Z,69
2023-05-24T12:04:10.207Z,68.9
2023-05-24T12:09:48.185Z,69.2
2023-05-24T12:15:37.754Z,69.6
2023-05-24T12:21:32.899Z,69.9
2023-05-24T12:27:12.268Z,69.5
2023-05-24T12:32:49.846Z,69.3
2023-05-24T12:38:26.842Z,68.6
2023-05-24T12:44:37.104Z,67.9
2023-05-24T12:50:13.581Z,68.1
2023-05-24T12:55:49.641Z,67.5
2023-05-24T13:01:27.758Z,67.6
2023-05-24T13:06:49.637Z,66.2
2023-05-24T13:12:11.219Z,62.4
2023-05-24T13:17:48.867Z,66.3
2023-05-24T13:23:40.497Z,64.9
2023-05-24T13:29:37.061Z,62.1
2023-05-24T13:35:08.458Z,57.8
2023-05-24T13:40:44.716Z,52.8
2023-05-24T13:46:05.915Z,46.8
2023-05-24T13:51:40.633Z,41.8
2023-05-24T13:57:03.202Z,38.6
2023-05-24T14:02:28.713Z,36.2
2023-05-24T14:08:20.945Z,34.8
2023-05-24T14:15:17.002Z,34.1
2023-05-24T14:20:39.348Z,33.8
2023-05-24T14:26:00.933Z,33.9
2023-05-24T14:31:21.690Z,34.3
2023-05-24T14:36:43.603Z,34.6
2023-05-24T14:42:22.712Z,35.3
2023-05-24T14:47:59.520Z,36.2
2023-05-24T14:53:35.324Z,37.4
2023-05-24T14:59:12.365Z,38.2
2023-05-24T15:04:52.695Z,39.4
2023-05-24T15:10:28.191Z,40.3
2023-05-24T15:16:05.031Z,40.9
2023-05-24T15:21:41.568Z,41.4
2023-05-24T15:27:18.489Z,41.2
2023-05-24T15:32:58.144Z,40.9
2023-05-24T15:38:36.108Z,40.5
2023-05-24T15:44:11.511Z,40.6
2023-05-24T15:50:04.032Z,40.3
2023-05-24T15:57:05.427Z,39.3
2023-05-24T16:02:56.236Z,38.3
2023-05-24T16:08:33.394Z,37.2
2023-05-24T16:14:12.262Z,36.1
2023-05-24T16:20:06.292Z,35.1
2023-05-24T16:26:01.100Z,34.2
2023-05-24T16:31:54.359Z,33.2
2023-05-24T16:38:04.457Z,32.3
2023-05-24T16:43:56.141Z,31.4
2023-05-24T16:49:32.906Z,30.7
2023-05-24T16:55:24.218Z,30.1
2023-05-24T17:01:19.094Z,29.6
2023-05-24T17:07:15.177Z,29.1
2023-05-24T17:13:06.150Z,28.6
2023-05-24T17:18:58.407Z,28.2
2023-05-24T17:24:49.914Z,27.6
2023-05-24T17:30:29.870Z,27.2
2023-05-24T17:36:21.901Z,26.6
2023-05-24T17:42:13.581Z,26.1
2023-05-24T17:48:08.800Z,25.4
2023-05-24T17:54:04.255Z,24.8
2023-05-24T17:59:40.351Z,24.2
2023-05-24T18:05:35.707Z,23.4
2023-05-24T18:11:28.995Z,22.7
2023-05-24T18:17:21.183Z,22
2023-05-24T18:23:13.038Z,21.2
2023-05-24T18:29:10.517Z,20.5
2023-05-24T18:35:05.666Z,20
2023-05-24T18:40:57.233Z,19.6
2023-05-24T18:46:35.258Z,19.2
2023-05-24T18:52:27.589Z,18.9
2023-05-24T18:57:48.204Z,18.6
2023-05-24T19:03:42.912Z,18.3
2023-05-24T19:09:36.253Z,18
2023-05-24T19:15:12.181Z,17.8
2023-05-24T19:21:05.774Z,17.5
2023-05-24T19:26:58.664Z,17.3
2023-05-24T19:32:42.586Z,17.2
2023-05-24T19:44:06.677Z,16.8
2023-05-24T19:49:58.913Z,16.7
2023-05-24T19:55:37.051Z,16.5
2023-05-24T20:01:13.491Z,16.4
2023-05-24T20:06:51.692Z,16.2
2023-05-24T20:12:28.686Z,16.1
2023-05-24T20:17:50.234Z,15.9
2023-05-24T20:23:26.374Z,15.8
2023-05-24T20:29:15.970Z,15.8
2023-05-24T20:34:52.264Z,15.6
2023-05-24T20:40:28.526Z,15.6
2023-05-24T20:46:05.835Z,15.4
2023-05-24T20:51:44.538Z,15.4
2023-05-24T20:57:20.932Z,15.3
2023-05-24T21:03:00.881Z,15.2
2023-05-24T21:08:37.749Z,15.2
2023-05-24T21:13:58.898Z,15.1
2023-05-24T21:19:20.969Z,15.1
2023-05-24T21:24:41.834Z,15.1
2023-05-24T21:30:17.495Z,15
2023-05-24T21:35:54.852Z,14.9
2023-05-24T21:41:30.499Z,14.8
2023-05-24T21:47:06.893Z,14.7
2023-05-24T21:52:59.334Z,14.6
2023-05-24T21:58:54.311Z,14.4
2023-05-24T22:04:47.149Z,14.3
2023-05-24T22:10:38.743Z,14.2
2023-05-24T22:16:30.072Z,14
2023-05-24T22:22:29.712Z,13.8
2023-05-24T22:28:23.975Z,13.6
2023-05-24T22:34:00.317Z,13.4
2023-05-24T22:39:51.541Z,13.3
2023-05-24T22:45:13.059Z,13.1
2023-05-24T22:51:05.042Z,12.9
